Time;durP1;ratioP1;P1;durP2;ratioP2;P2;SDS_P1;SDS_P2;PMS_P1;PMS_P2;Temp;Humidity;BMP_temperature;BMP_pressure;BME280_temperature;BME280_humidity;BME280_pressure;Samples;Min_cycle;Max_cycle;Signal;HPM_P1;HPM_P2
2023/07/10 00:01:03;;;;;;;8.63;6.10;;;;;;;-142.57;65.12;115900.28;6224736;23;20012;-86
2023/07/10 00:03:29;;;;;;;13.48;6.40;;;;;;;-142.57;65.34;115900.28;6247374;23;20008;-85
2023/07/10 00:05:58;;;;;;;12.07;6.70;;;;;;;-142.57;65.64;115900.28;6221552;23;20012;-83
2023/07/10 00:08:24;;;;;;;9.68;5.68;;;;;;;-142.57;65.63;115900.28;6248298;23;20012;-84
2023/07/10 00:10:50;;;;;;;13.00;5.93;;;;;;;-142.57;64.71;115900.28;6247677;23;20016;-80
2023/07/10 00:13:21;;;;;;;15.75;6.38;;;;;;;-142.57;65.58;115900.28;6220734;23;20062;-81
2023/07/10 00:15:48;;;;;;;17.35;6.55;;;;;;;-142.57;67.05;115900.28;6250831;23;20016;-84
2023/07/10 00:18:16;;;;;;;14.57;6.78;;;;;;;-142.57;68.14;115900.28;6254091;23;20328;-85
2023/07/10 00:20:42;;;;;;;12.05;6.15;;;;;;;-142.57;67.58;115900.28;6256541;23;20087;-82
2023/07/10 00:23:08;;;;;;;12.43;5.85;;;;;;;-142.57;67.15;115900.28;6257241;23;20012;-88
2023/07/10 00:25:35;;;;;;;9.10;6.35;;;;;;;-142.57;66.76;115900.28;6257208;23;20063;-86
2023/07/10 00:28:01;;;;;;;10.25;5.85;;;;;;;-142.57;67.28;115900.28;6255413;23;20005;-86
2023/07/10 00:30:27;;;;;;;9.38;5.90;;;;;;;-142.57;66.47;115900.28;6254543;23;20308;-86
2023/07/10 00:32:54;;;;;;;8.20;6.00;;;;;;;-142.57;66.46;115900.28;6253215;23;20014;-86
2023/07/10 00:35:22;;;;;;;10.75;6.05;;;;;;;-142.57;67.27;115900.28;6227804;23;20004;-87
2023/07/10 00:38:00;;;;;;;9.35;6.20;;;;;;;-142.57;67.60;115900.28;6227667;23;20000;-85
2023/07/10 00:40:30;;;;;;;11.43;5.88;;;;;;;-142.57;69.62;115900.28;6260193;23;20055;-89
2023/07/10 00:43:13;;;;;;;14.57;6.28;;;;;;;-142.57;70.48;115900.28;6261436;23;20371;-86
2023/07/10 00:45:38;;;;;;;15.10;6.38;;;;;;;-142.57;71.30;115900.28;6259029;23;20016;-86
2023/07/10 00:48:33;;;;;;;13.73;6.88;;;;;;;-142.57;72.06;115900.28;6204222;23;20004;-86
2023/07/10 00:51:05;;;;;;;10.30;6.22;;;;;;;-142.57;70.30;115900.28;6257475;23;20507;-87
2023/07/10 00:53:36;;;;;;;10.88;6.53;;;;;;;-142.57;69.82;115900.28;6260064;23;20190;-88
2023/07/10 00:56:02;;;;;;;10.75;6.35;;;;;;;-142.57;70.72;115900.28;6258737;23;20016;-84
2023/07/10 00:58:37;;;;;;;10.50;5.95;;;;;;;-142.57;70.65;115900.28;6231389;23;20004;-85
2023/07/10 01:01:07;;;;;;;15.85;6.22;;;;;;;-142.57;70.71;115900.28;6229815;23;20012;-87
2023/07/10 01:03:35;;;;;;;10.70;6.68;;;;;;;-142.57;71.88;115900.28;6233012;23;20020;-82
2023/07/10 01:06:12;;;;;;;13.25;6.68;;;;;;;-142.57;72.24;115900.28;6236617;23;20034;-82
2023/07/10 01:08:40;;;;;;;14.50;6.88;;;;;;;-142.57;72.77;115900.28;6219476;23;20012;-81
2023/07/10 01:11:05;;;;;;;10.82;6.78;;;;;;;-142.57;72.87;115900.28;6244759;22;20003;-83
2023/07/10 01:13:31;;;;;;;10.00;6.20;;;;;;;-142.57;73.89;115900.28;6249006;23;19996;-87
2023/07/10 01:15:57;;;;;;;12.52;6.47;;;;;;;-142.57;74.11;115900.28;6222940;23;20039;-86
2023/07/10 01:18:24;;;;;;;11.20;6.55;;;;;;;-142.57;74.69;115900.28;6266871;22;20015;-82
2023/07/10 01:21:06;;;;;;;10.15;6.13;;;;;;;-142.57;74.45;115900.28;6262777;23;20005;-84
2023/07/10 01:23:35;;;;;;;10.55;6.30;;;;;;;-142.57;73.91;115900.28;6260097;23;20062;-81
2023/07/10 01:26:03;;;;;;;7.70;6.03;;;;;;;-142.57;73.38;115900.28;6232301;23;20016;-81
2023/07/10 01:28:33;;;;;;;9.27;6.55;;;;;;;-142.57;74.04;115900.28;6260377;23;20004;-84
2023/07/10 01:31:03;;;;;;;9.13;6.32;;;;;;;-142.57;75.63;115900.28;6263386;23;20017;-86
2023/07/10 01:33:35;;;;;;;10.52;6.30;;;;;;;-142.57;76.69;115900.28;6210320;23;20073;-83
2023/07/10 01:36:02;;;;;;;;;;;;;;;-142.57;78.01;115900.28;6211793;23;20020;-84
2023/07/10 01:38:36;;;;;;;12.55;6.90;;;;;;;-142.57;78.15;115900.28;6262734;23;19904;-86
2023/07/10 01:41:12;;;;;;;11.70;6.88;;;;;;;-142.57;77.52;115900.28;6238460;23;20027;-85
2023/07/10 01:43:38;;;;;;;15.18;6.78;;;;;;;-142.57;76.19;115900.28;6268840;23;20038;-86
2023/07/10 01:46:16;;;;;;;11.70;6.78;;;;;;;-142.57;75.72;115900.28;6241021;23;19996;-84
2023/07/10 01:48:42;;;;;;;12.15;6.65;;;;;;;-142.57;75.16;115900.28;6242045;23;19996;-84
2023/07/10 01:51:07;;;;;;;12.32;6.45;;;;;;;-142.57;75.75;115900.28;6246321;23;20018;-83
2023/07/10 01:53:33;;;;;;;12.73;6.35;;;;;;;-142.57;77.00;115900.28;6273613;23;20008;-85
2023/07/10 01:55:59;;;;;;;13.10;7.13;;;;;;;-142.57;76.22;115900.28;6274272;22;20003;-82
2023/07/10 01:58:25;;;;;;;7.97;6.30;;;;;;;-142.57;75.95;115900.28;6248291;22;20011;-88
2023/07/10 02:00:51;;;;;;;13.27;7.18;;;;;;;-142.57;75.87;115900.28;6245211;23;20012;-86
2023/07/10 02:03:16;;;;;;;10.52;6.30;;;;;;;-142.57;75.51;115900.28;6240362;23;20039;-86
2023/07/10 02:05:44;;;;;;;12.05;6.93;;;;;;;-142.57;76.19;115900.28;6262636;23;20031;-87
2023/07/10 02:08:10;;;;;;;12.40;6.63;;;;;;;-142.57;76.59;115900.28;6261281;23;20000;-88
2023/07/10 02:10:35;;;;;;;9.40;6.60;;;;;;;-142.57;76.53;115900.28;6259343;23;20043;-84
2023/07/10 02:13:01;;;;;;;12.00;6.68;;;;;;;-142.57;76.77;115900.28;6258028;23;20062;-84
2023/07/10 02:15:26;;;;;;;10.18;6.70;;;;;;;-142.57;76.38;115900.28;6259115;23;20013;-86
2023/07/10 02:17:52;;;;;;;13.85;6.68;;;;;;;-142.57;76.42;115900.28;6259311;23;20004;-84
2023/07/10 02:20:18;;;;;;;10.45;6.40;;;;;;;-142.57;75.76;115900.28;6261651;23;20008;-85
2023/07/10 02:22:43;;;;;;;11.05;6.63;;;;;;;-142.57;75.42;115900.28;6263968;23;20020;-85
2023/07/10 02:25:11;;;;;;;17.58;7.05;;;;;;;-142.57;76.81;115900.28;6262151;23;20011;-82
2023/07/10 02:27:36;;;;;;;12.23;6.43;;;;;;;-142.57;76.48;115900.28;6263510;23;20046;-86
2023/07/10 02:30:03;;;;;;;15.07;6.18;;;;;;;-142.57;76.72;115900.28;6258382;23;20000;-84
2023/07/10 02:32:30;;;;;;;8.73;5.60;;;;;;;-142.57;76.57;115900.28;6237169;23;20027;-81
2023/07/10 02:34:55;;;;;;;12.80;6.38;;;;;;;-142.57;76.61;115900.28;6263414;23;20008;-80
2023/07/10 02:37:21;;;;;;;10.43;6.63;;;;;;;-142.57;77.93;115900.28;6239927;23;20042;-82
2023/07/10 02:39:46;;;;;;;19.05;6.93;;;;;;;-142.57;78.46;115900.28;6263926;23;20013;-81
2023/07/10 02:42:12;;;;;;;11.45;6.70;;;;;;;-142.57;79.80;115900.28;6263224;23;20370;-83
2023/07/10 02:44:37;;;;;;;14.93;7.03;;;;;;;-142.57;81.84;115900.28;6237148;23;20012;-80
2023/07/10 02:47:03;;;;;;;13.50;6.40;;;;;;;-142.57;82.69;115900.28;6236675;23;20012;-79
2023/07/10 02:49:29;;;;;;;13.30;7.57;;;;;;;-142.57;83.26;115900.28;6236448;23;20089;-81
2023/07/10 02:51:54;;;;;;;10.48;6.72;;;;;;;-142.57;83.20;115900.28;6261961;23;20032;-82
2023/07/10 02:54:20;;;;;;;10.65;7.05;;;;;;;-142.57;83.97;115900.28;6263988;23;20356;-82
2023/07/10 02:56:45;;;;;;;17.48;7.45;;;;;;;-142.57;84.39;115900.28;6237138;23;19999;-79
2023/07/10 02:59:11;;;;;;;11.82;6.55;;;;;;;-142.57;83.80;115900.28;6264089;23;20063;-81
2023/07/10 03:01:36;;;;;;;13.93;6.53;;;;;;;-142.57;82.21;115900.28;6266593;23;20038;-85
2023/07/10 03:04:02;;;;;;;8.77;6.13;;;;;;;-142.57;81.50;115900.28;6242416;23;20004;-87
2023/07/10 03:06:28;;;;;;;13.30;6.80;;;;;;;-142.57;81.18;115900.28;6270078;23;20008;-84
2023/07/10 03:08:53;;;;;;;12.55;6.68;;;;;;;-142.57;79.89;115900.28;6270447;23;20015;-86
2023/07/10 03:11:21;;;;;;;10.65;7.10;;;;;;;-142.57;81.25;115900.28;6270597;23;20063;-83
2023/07/10 03:13:47;;;;;;;17.40;6.40;;;;;;;-142.57;82.39;115900.28;6271007;23;20008;-83
2023/07/10 03:16:14;;;;;;;10.55;6.53;;;;;;;-142.57;83.07;115900.28;6270820;23;20028;-84
2023/07/10 03:18:40;;;;;;;16.40;6.72;;;;;;;-142.57;84.03;115900.28;6243262;23;20004;-82
2023/07/10 03:21:06;;;;;;;11.25;6.90;;;;;;;-142.57;85.25;115900.28;6237587;23;20058;-84
2023/07/10 03:23:31;;;;;;;8.98;5.95;;;;;;;-142.57;85.57;115900.28;6260963;23;20012;-85
2023/07/10 03:25:57;;;;;;;11.40;6.40;;;;;;;-142.57;86.84;115900.28;6260877;23;20008;-85
2023/07/10 03:28:23;;;;;;;12.55;6.80;;;;;;;-142.57;87.39;115900.28;6259830;23;20001;-87
2023/07/10 03:30:49;;;;;;;14.75;6.80;;;;;;;-142.57;88.65;115900.28;6260668;23;20012;-85
2023/07/10 03:33:16;;;;;;;12.02;6.82;;;;;;;-142.57;87.39;115900.28;6259521;23;20004;-83
2023/07/10 03:35:42;;;;;;;12.60;6.57;;;;;;;-142.57;86.82;115900.28;6233080;23;20066;-83
2023/07/10 03:38:09;;;;;;;11.32;6.53;;;;;;;-142.57;86.58;115900.28;6259435;23;20018;-83
2023/07/10 03:40:35;;;;;;;12.48;6.72;;;;;;;-142.57;87.54;115900.28;6259664;23;20003;-85
2023/07/10 03:43:00;;;;;;;13.15;6.65;;;;;;;-142.57;88.16;115900.28;6258357;23;20066;-86
2023/07/10 03:45:26;;;;;;;11.75;6.47;;;;;;;-142.57;86.55;115900.28;6230860;23;20015;-85
2023/07/10 03:47:51;;;;;;;17.25;7.07;;;;;;;-142.57;87.81;115900.28;6256917;23;20019;-86
2023/07/10 03:50:17;;;;;;;9.43;6.60;;;;;;;-142.57;88.92;115900.28;6256823;23;20019;-87
2023/07/10 03:52:43;;;;;;;10.13;6.63;;;;;;;-142.57;87.78;115900.28;6254329;23;20008;-81
2023/07/10 03:55:08;;;;;;;15.07;7.57;;;;;;;-142.57;87.29;115900.28;6258919;23;20058;-86
2023/07/10 03:57:34;;;;;;;14.32;8.10;;;;;;;-142.57;87.26;115900.28;6258064;23;20083;-86
2023/07/10 04:00:00;;;;;;;14.68;7.50;;;;;;;-142.57;86.87;115900.28;6259886;23;20058;-82
2023/07/10 04:02:25;;;;;;;12.63;7.45;;;;;;;-142.57;88.59;115900.28;6257522;23;20344;-84
2023/07/10 04:04:50;;;;;;;15.57;7.53;;;;;;;-142.57;90.61;115900.28;6257496;23;20060;-86
2023/07/10 04:07:17;;;;;;;12.38;7.70;;;;;;;-142.57;89.77;115900.28;6258433;23;20004;-84
2023/07/10 04:09:43;;;;;;;16.65;7.95;;;;;;;-142.57;89.37;115900.28;6258712;23;20008;-85
2023/07/10 04:12:09;;;;;;;12.02;8.00;;;;;;;-142.57;89.79;115900.28;6254942;23;20059;-82
2023/07/10 04:14:37;;;;;;;12.40;7.07;;;;;;;-142.57;90.08;115900.28;6228081;23;20339;-83
2023/07/10 04:17:04;;;;;;;15.55;8.07;;;;;;;-142.57;89.16;115900.28;6254081;23;20008;-84
2023/07/10 04:19:30;;;;;;;17.83;7.50;;;;;;;-142.57;89.39;115900.28;6251768;23;20436;-85
2023/07/10 04:21:55;;;;;;;13.68;7.68;;;;;;;-142.57;89.45;115900.28;6224888;23;20013;-84
2023/07/10 04:24:20;;;;;;;12.70;7.93;;;;;;;-142.57;89.18;115900.28;6252052;23;20115;-80
2023/07/10 04:26:46;;;;;;;15.80;8.70;;;;;;;-142.57;89.04;115900.28;6249935;23;20004;-85
2023/07/10 04:29:12;;;;;;;15.25;7.90;;;;;;;-142.57;90.29;115900.28;6254246;23;20063;-82
2023/07/10 04:31:38;;;;;;;14.82;8.05;;;;;;;-142.57;89.79;115900.28;6258090;23;20008;-83
2023/07/10 04:34:03;;;;;;;15.32;8.40;;;;;;;-142.57;89.64;115900.28;6264714;23;20015;-83
2023/07/10 04:36:29;;;;;;;13.63;8.90;;;;;;;-142.57;89.33;115900.28;6246070;22;20004;-85
2023/07/10 04:38:54;;;;;;;19.95;8.20;;;;;;;-142.57;89.51;115900.28;6272835;22;19995;-81
2023/07/10 04:41:22;;;;;;;16.55;7.95;;;;;;;-142.57;88.78;115900.28;6245289;23;19996;-85
2023/07/10 04:43:48;;;;;;;14.88;8.70;;;;;;;-142.57;88.12;115900.28;6248728;23;20019;-85
2023/07/10 04:46:16;;;;;;;25.13;8.75;;;;;;;-142.57;88.29;115900.28;6250094;23;20008;-83
2023/07/10 04:48:44;;;;;;;25.90;10.57;;;;;;;-142.57;87.90;115900.28;6225185;23;20041;-82
2023/07/10 04:51:11;;;;;;;23.17;10.40;;;;;;;-142.57;88.23;115900.28;6224494;23;20327;-82
2023/07/10 04:53:37;;;;;;;24.70;12.25;;;;;;;-142.57;88.56;115900.28;6252699;23;20403;-81
2023/07/10 04:56:06;;;;;;;23.67;14.95;;;;;;;-142.57;89.94;115900.28;6224438;23;20063;-80
2023/07/10 04:58:49;;;;;;;23.85;15.25;;;;;;;-142.57;88.93;115900.28;6249988;23;20007;-80
2023/07/10 05:01:18;;;;;;;33.25;15.13;;;;;;;-142.57;88.35;115900.28;6251666;23;20058;-81
2023/07/10 05:03:43;;;;;;;27.30;16.15;;;;;;;-142.57;87.73;115900.28;6256067;23;20015;-87
2023/07/10 05:06:09;;;;;;;30.10;17.60;;;;;;;-142.57;88.85;115900.28;6255983;23;20004;-86
2023/07/10 05:08:34;;;;;;;26.35;18.23;;;;;;;-142.57;89.55;115900.28;6258603;23;20091;-89
2023/07/10 05:11:01;;;;;;;35.25;18.73;;;;;;;-142.57;89.84;115900.28;6198845;23;20019;-88
2023/07/10 05:13:29;;;;;;;23.27;17.92;;;;;;;-142.57;91.13;115900.28;6223590;23;20027;-87
2023/07/10 05:16:18;;;;;;;37.38;19.58;;;;;;;-142.57;90.77;115900.28;6212099;23;20052;-90
2023/07/10 05:18:45;;;;;;;35.08;24.08;;;;;;;-142.57;90.47;115900.28;6232033;23;20016;-86
2023/07/10 05:21:11;;;;;;;37.90;26.95;;;;;;;-142.57;91.08;115900.28;6248465;23;20336;-84
2023/07/10 05:23:45;;;;;;;44.28;29.80;;;;;;;-142.57;90.94;115900.28;6252955;23;20020;-90
2023/07/10 05:26:15;;;;;;;35.28;27.48;;;;;;;-142.57;90.25;115900.28;6243079;23;20016;-90
2023/07/10 05:28:51;;;;;;;44.70;30.80;;;;;;;-142.57;91.75;115900.28;6213601;23;20337;-91
2023/07/10 05:31:18;;;;;;;50.00;34.50;;;;;;;-142.57;91.83;115900.28;6177604;23;20012;-86
2023/07/10 05:33:47;;;;;;;44.30;34.97;;;;;;;-142.57;90.73;115900.28;6248126;23;20008;-83
2023/07/10 05:36:13;;;;;;;54.45;34.78;;;;;;;-142.57;90.01;115900.28;6248800;23;20004;-85
2023/07/10 05:38:39;;;;;;;46.45;33.88;;;;;;;-142.57;90.74;115900.28;6249026;23;20054;-84
2023/07/10 05:41:06;;;;;;;51.80;34.47;;;;;;;-142.57;89.94;115900.28;6248744;23;20067;-84
2023/07/10 05:43:33;;;;;;;50.88;35.25;;;;;;;-142.57;89.65;115900.28;6255620;23;20075;-85
2023/07/10 05:45:59;;;;;;;45.08;33.75;;;;;;;-142.57;88.63;115900.28;6264679;23;20038;-86
2023/07/10 05:48:25;;;;;;;54.10;34.28;;;;;;;-142.57;86.66;115900.28;6222665;23;20040;-84
2023/07/10 05:50:51;;;;;;;37.85;30.15;;;;;;;-142.57;86.18;115900.28;6248834;23;20083;-84
2023/07/10 05:53:17;;;;;;;46.13;32.33;;;;;;;-142.57;83.45;115900.28;6250716;23;20008;-87
2023/07/10 05:55:49;;;;;;;48.05;33.88;;;;;;;-142.57;82.50;115900.28;6260061;23;20004;-88
2023/07/10 05:58:16;;;;;;;50.83;32.88;;;;;;;-142.57;81.93;115900.28;6231341;23;20015;-87
2023/07/10 06:00:47;;;;;;;49.13;32.92;;;;;;;-142.57;80.76;115900.28;6236967;23;20072;-89
2023/07/10 06:03:15;;;;;;;65.10;32.53;;;;;;;-142.57;79.97;115900.28;6268665;23;20030;-91
2023/07/10 06:05:41;;;;;;;53.45;30.20;;;;;;;-142.57;80.19;115900.28;6232790;23;20041;-86
2023/07/10 06:08:08;;;;;;;52.63;34.28;;;;;;;-142.57;76.27;115900.28;6254077;23;20032;-87
2023/07/10 06:10:42;;;;;;;44.92;31.92;;;;;;;-142.57;73.20;115900.28;6177938;23;20469;-89
2023/07/10 06:13:08;;;;;;;50.40;31.20;;;;;;;-142.57;72.14;115900.28;6207905;23;20016;-88
2023/07/10 06:15:33;;;;;;;38.95;25.75;;;;;;;-142.57;70.61;115900.28;6261431;23;20010;-85
2023/07/10 06:18:02;;;;;;;39.85;25.60;;;;;;;-142.57;68.38;115900.28;6260457;23;20027;-86
2023/07/10 06:20:27;;;;;;;35.92;24.88;;;;;;;-142.57;66.19;115900.28;6207675;23;20338;-87
2023/07/10 06:22:53;;;;;;;30.73;22.08;;;;;;;-142.57;65.08;115900.28;6233444;23;20016;-88
2023/07/10 06:25:19;;;;;;;38.60;24.55;;;;;;;-142.57;62.88;115900.28;6236651;23;20016;-87
2023/07/10 06:27:44;;;;;;;36.30;24.20;;;;;;;-142.57;62.04;115900.28;6264045;23;20011;-85
2023/07/10 06:30:11;;;;;;;37.50;22.88;;;;;;;-142.57;57.55;115900.28;6266706;23;20008;-88
2023/07/10 06:32:36;;;;;;;30.40;19.27;;;;;;;-142.57;56.56;115900.28;6266786;23;20027;-85
2023/07/10 06:35:05;;;;;;;31.33;18.75;;;;;;;-142.57;56.26;115900.28;6240006;23;20064;-83
2023/07/10 06:37:31;;;;;;;24.88;16.17;;;;;;;-142.57;54.06;115900.28;6263712;23;20067;-88
2023/07/10 06:40:05;;;;;;;27.17;15.45;;;;;;;-142.57;54.08;115900.28;6238140;23;20019;-84
2023/07/10 06:42:31;;;;;;;24.90;15.27;;;;;;;-142.57;54.55;115900.28;6238101;23;20019;-90
2023/07/10 06:44:58;;;;;;;25.95;16.10;;;;;;;-142.57;52.99;115900.28;6228145;23;20435;-87
2023/07/10 06:47:23;;;;;;;31.25;16.17;;;;;;;-142.57;54.41;115900.28;6256994;23;20072;-83
2023/07/10 06:49:49;;;;;;;28.80;16.48;;;;;;;-142.57;54.94;115900.28;6255947;23;20091;-86
2023/07/10 06:52:14;;;;;;;26.60;14.75;;;;;;;-142.57;52.79;115900.28;6260225;23;20016;-87
2023/07/10 06:54:40;;;;;;;27.58;15.68;;;;;;;-142.57;48.63;115900.28;6255952;23;20012;-86
2023/07/10 06:57:05;;;;;;;34.40;18.35;;;;;;;-142.57;48.65;115900.28;6250105;23;20008;-83
2023/07/10 06:59:31;;;;;;;25.38;16.77;;;;;;;-142.57;49.78;115900.28;6250964;23;20004;-86
2023/07/10 07:01:56;;;;;;;32.63;17.05;;;;;;;-142.57;49.94;115900.28;6248339;23;20470;-87
2023/07/10 07:04:22;;;;;;;25.52;16.65;;;;;;;-142.57;49.97;115900.28;6250859;23;20043;-87
2023/07/10 07:06:50;;;;;;;27.85;16.67;;;;;;;-142.57;48.95;115900.28;6252118;23;20019;-86
2023/07/10 07:09:15;;;;;;;27.80;15.45;;;;;;;-142.57;48.02;115900.28;6249075;23;20026;-85
2023/07/10 07:11:41;;;;;;;25.08;14.63;;;;;;;-142.57;44.60;115900.28;6249271;23;20005;-88
2023/07/10 07:14:07;;;;;;;30.30;16.35;;;;;;;-142.57;43.99;115900.28;6247530;23;20016;-84
2023/07/10 07:16:32;;;;;;;24.52;14.25;;;;;;;-142.57;41.81;115900.28;6249074;23;20004;-86
2023/07/10 07:18:58;;;;;;;22.75;14.75;;;;;;;-142.57;43.29;115900.28;6248684;23;20009;-81
2023/07/10 07:21:23;;;;;;;27.95;15.43;;;;;;;-142.57;44.82;115900.28;6248684;23;20004;-82
2023/07/10 07:23:49;;;;;;;23.55;14.52;;;;;;;-142.57;45.07;115900.28;6248802;23;20435;-81
2023/07/10 07:26:14;;;;;;;29.17;15.57;;;;;;;-142.57;44.58;115900.28;6248031;23;20008;-83
2023/07/10 07:28:40;;;;;;;29.73;15.52;;;;;;;-142.57;42.51;115900.28;6220195;23;20008;-80
2023/07/10 07:31:06;;;;;;;30.95;14.95;;;;;;;-142.57;44.41;115900.28;6249572;23;20012;-80
2023/07/10 07:33:32;;;;;;;22.48;16.10;;;;;;;-142.57;42.05;115900.28;6247258;23;20462;-81
2023/07/10 07:36:01;;;;;;;28.20;15.43;;;;;;;-142.57;43.08;115900.28;6248735;23;20004;-82
2023/07/10 07:38:27;;;;;;;31.00;17.10;;;;;;;-142.57;42.98;115900.28;6251892;23;20012;-82
2023/07/10 07:40:52;;;;;;;28.70;17.40;;;;;;;-142.57;42.59;115900.28;6253314;23;20383;-85
2023/07/10 07:43:19;;;;;;;27.17;14.85;;;;;;;-142.57;40.78;115900.28;6249226;23;20008;-84
2023/07/10 07:45:50;;;;;;;24.30;14.15;;;;;;;-142.57;38.82;115900.28;6249453;23;20050;-83
2023/07/10 07:48:15;;;;;;;29.70;14.73;;;;;;;-142.57;41.44;115900.28;6249602;23;20312;-82
2023/07/10 07:50:41;;;;;;;29.20;17.05;;;;;;;-142.57;41.65;115900.28;6252415;23;20083;-86
2023/07/10 07:53:06;;;;;;;27.33;14.82;;;;;;;-142.57;41.11;115900.28;6229276;23;20012;-89
2023/07/10 07:55:32;;;;;;;32.28;15.40;;;;;;;-142.57;42.03;115900.28;6261090;23;20419;-84
2023/07/10 07:57:57;;;;;;;29.27;14.57;;;;;;;-142.57;41.58;115900.28;6262825;23;20008;-88
2023/07/10 08:00:23;;;;;;;24.48;14.35;;;;;;;-142.57;41.11;115900.28;6259442;23;20008;-86
2023/07/10 08:02:49;;;;;;;32.33;15.23;;;;;;;-142.57;39.58;115900.28;6259006;23;20008;-85
2023/07/10 08:05:15;;;;;;;30.75;15.20;;;;;;;-142.57;40.79;115900.28;6262745;23;20008;-85
2023/07/10 08:07:48;;;;;;;28.67;13.93;;;;;;;-142.57;39.17;115900.28;6213117;23;19996;-84
2023/07/10 08:10:13;;;;;;;19.10;12.38;;;;;;;-142.57;39.43;115900.28;6202019;23;20016;-81
2023/07/10 08:12:39;;;;;;;25.02;16.15;;;;;;;-142.57;40.39;115900.28;6263069;23;19997;-83
2023/07/10 08:15:05;;;;;;;26.85;16.40;;;;;;;-142.57;39.86;115900.28;6265040;22;20020;-80
2023/07/10 08:17:31;;;;;;;25.13;14.45;;;;;;;-142.57;39.17;115900.28;6233309;23;20018;-87
2023/07/10 08:19:57;;;;;;;30.63;15.45;;;;;;;-142.57;40.00;115900.28;6250103;23;20079;-87
2023/07/10 08:22:22;;;;;;;32.72;12.20;;;;;;;-142.57;39.09;115900.28;6226648;23;20023;-89
2023/07/10 08:24:48;;;;;;;20.80;12.57;;;;;;;-142.57;38.95;115900.28;6253876;23;20012;-87
2023/07/10 08:27:13;;;;;;;19.50;12.68;;;;;;;-142.57;39.36;115900.28;6249281;23;20035;-84
2023/07/10 08:29:39;;;;;;;29.23;14.90;;;;;;;-142.57;40.53;115900.28;6250073;23;20016;-89
2023/07/10 08:32:05;;;;;;;33.40;14.27;;;;;;;-142.57;40.56;115900.28;6249944;23;20054;-88
2023/07/10 08:34:31;;;;;;;24.25;15.27;;;;;;;-142.57;40.29;115900.28;6253867;23;20083;-88
2023/07/10 08:36:58;;;;;;;21.00;13.52;;;;;;;-142.57;41.42;115900.28;6252683;23;20087;-88
2023/07/10 08:39:24;;;;;;;23.77;14.75;;;;;;;-142.57;40.10;115900.28;6248887;23;20340;-86
2023/07/10 08:41:54;;;;;;;19.17;12.07;;;;;;;-142.57;40.13;115900.28;6248829;23;20008;-84
2023/07/10 08:44:24;;;;;;;19.00;12.40;;;;;;;-142.57;40.52;115900.28;6249686;23;20095;-86
2023/07/10 08:46:50;;;;;;;24.95;12.18;;;;;;;-142.57;39.15;115900.28;6247913;23;20012;-85
2023/07/10 08:49:33;;;;;;;19.75;10.90;;;;;;;-142.57;37.60;115900.28;6248343;23;20415;-84
2023/07/10 08:52:10;;;;;;;18.23;12.10;;;;;;;-142.57;35.82;115900.28;6247191;23;20016;-84
2023/07/10 08:54:36;;;;;;;19.77;12.65;;;;;;;-142.57;35.11;115900.28;6247876;23;20055;-85
2023/07/10 08:57:04;;;;;;;22.10;10.88;;;;;;;-142.57;36.45;115900.28;6247898;23;20008;-83
2023/07/10 08:59:53;;;;;;;20.70;10.40;;;;;;;-142.57;35.05;115900.28;6248612;23;20019;-85
2023/07/10 09:02:29;;;;;;;22.77;11.95;;;;;;;-142.57;35.95;115900.28;6248890;23;20324;-85
2023/07/10 09:04:55;;;;;;;27.17;11.27;;;;;;;-142.57;35.88;115900.28;6249022;23;20043;-85
2023/07/10 09:07:21;;;;;;;25.90;11.55;;;;;;;-142.57;35.66;115900.28;6248518;23;20008;-83
2023/07/10 09:09:53;;;;;;;17.75;10.13;;;;;;;-142.57;36.26;115900.28;6248523;23;20008;-84
2023/07/10 09:12:33;;;;;;;25.05;11.75;;;;;;;-142.57;35.92;115900.28;6221418;23;20074;-84
2023/07/10 09:15:05;;;;;;;20.00;9.07;;;;;;;-142.57;36.76;115900.28;6196215;23;20467;-88
2023/07/10 09:17:49;;;;;;;18.15;10.40;;;;;;;-142.57;36.03;115900.28;6251778;23;20095;-89
2023/07/10 09:20:16;;;;;;;15.50;9.25;;;;;;;-142.57;35.66;115900.28;6223846;23;20447;-87
2023/07/10 09:22:51;;;;;;;27.55;9.15;;;;;;;-142.57;36.80;115900.28;6227351;23;20377;-89
2023/07/10 09:25:16;;;;;;;21.45;8.73;;;;;;;-142.57;35.33;115900.28;6226194;23;20008;-87
2023/07/10 09:27:45;;;;;;;12.57;6.70;;;;;;;-142.57;34.94;115900.28;6228098;23;20007;-86
2023/07/10 09:30:26;;;;;;;21.13;7.50;;;;;;;-142.57;35.25;115900.28;6254363;23;20008;-89
2023/07/10 09:33:04;;;;;;;14.02;7.70;;;;;;;-142.57;34.66;115900.28;6253981;23;20074;-87
2023/07/10 09:35:33;;;;;;;14.77;8.00;;;;;;;-142.57;34.87;115900.28;6255204;23;20035;-91
2023/07/10 09:38:01;;;;;;;14.32;8.10;;;;;;;-142.57;34.15;115900.28;6236248;23;20012;-89
2023/07/10 09:40:43;;;;;;;19.08;6.75;;;;;;;-142.57;32.90;115900.28;6258716;23;20008;-91
2023/07/10 09:43:18;;;;;;;15.32;6.80;;;;;;;-142.57;32.98;115900.28;6202592;23;20443;-86
2023/07/10 09:45:50;;;;;;;16.70;7.28;;;;;;;-142.57;33.37;115900.28;6249162;23;20019;-89
2023/07/10 09:48:34;;;;;;;13.82;6.70;;;;;;;-142.57;34.33;115900.28;6250599;23;20012;-89
2023/07/10 09:51:07;;;;;;;13.45;7.95;;;;;;;-142.57;35.23;115900.28;6250373;23;20077;-89
2023/07/10 09:53:48;;;;;;;12.07;6.53;;;;;;;-142.57;34.84;115900.28;6256398;23;20020;-90
2023/07/10 09:56:35;;;;;;;16.00;7.05;;;;;;;-142.57;34.22;115900.28;6230849;23;20020;-89
2023/07/10 09:59:12;;;;;;;14.73;7.57;;;;;;;-142.57;34.25;115900.28;6250039;23;20008;-88
2023/07/10 10:01:38;;;;;;;20.13;7.20;;;;;;;-142.57;34.27;115900.28;6224499;23;20050;-88
2023/07/10 10:04:03;;;;;;;18.08;7.57;;;;;;;-142.57;33.79;115900.28;6251266;23;20024;-88
2023/07/10 10:06:32;;;;;;;18.17;7.57;;;;;;;-142.57;34.63;115900.28;6254007;23;20012;-91
2023/07/10 10:09:13;;;;;;;18.63;7.05;;;;;;;-142.57;34.43;115900.28;6255060;23;20012;-88
2023/07/10 10:11:48;;;;;;;17.77;7.32;;;;;;;-142.57;34.45;115900.28;6260563;23;20095;-90
2023/07/10 10:14:18;;;;;;;11.60;6.30;;;;;;;-142.57;33.42;115900.28;6257187;23;20091;-90
2023/07/10 10:16:55;;;;;;;23.30;6.50;;;;;;;-142.57;33.78;115900.28;6249873;23;20039;-92
2023/07/10 10:19:41;;;;;;;14.52;6.75;;;;;;;-142.57;32.98;115900.28;6251592;23;20023;-93
2023/07/10 10:22:27;;;;;;;14.38;6.05;;;;;;;-142.57;32.19;115900.28;6252921;23;20016;-91
2023/07/10 10:24:59;;;;;;;16.25;6.82;;;;;;;-142.57;32.95;115900.28;6228370;23;20008;-91
2023/07/10 10:28:01;;;;;;;13.35;8.45;;;;;;;-142.57;34.18;115900.28;6256408;23;20008;-90
2023/07/10 10:30:32;;;;;;;17.75;7.10;;;;;;;-142.57;34.16;115900.28;6103984;23;20017;-92
2023/07/10 10:33:18;;;;;;;12.07;6.53;;;;;;;-142.57;34.08;115900.28;6097911;23;20046;-86
2023/07/10 10:36:13;;;;;;;16.92;6.65;;;;;;;-142.57;33.46;115900.28;6077744;23;20018;-88
2023/07/10 10:39:14;;;;;;;22.17;6.28;;;;;;;-142.57;32.28;115900.28;6109322;23;20519;-89
2023/07/10 10:42:09;;;;;;;12.82;6.22;;;;;;;-142.57;32.82;115900.28;6180062;23;20014;-90
2023/07/10 10:44:48;;;;;;;16.67;6.95;;;;;;;-142.57;32.50;115900.28;6265396;23;20012;-89
2023/07/10 10:47:17;;;;;;;16.23;6.50;;;;;;;-142.57;33.16;115900.28;6240670;23;20343;-89
2023/07/10 10:50:02;;;;;;;9.45;6.05;;;;;;;-142.57;33.04;115900.28;6267748;23;20060;-89
2023/07/10 10:52:49;;;;;;;19.08;6.07;;;;;;;-142.57;32.45;115900.28;6269975;23;20072;-87
2023/07/10 10:55:49;;;;;;;13.68;6.05;;;;;;;-142.57;31.40;115900.28;6268970;23;20012;-89
2023/07/10 10:58:43;;;;;;;8.98;5.75;;;;;;;-142.57;31.35;115900.28;6242421;23;20004;-85
2023/07/10 11:01:31;;;;;;;13.52;5.88;;;;;;;-142.57;32.20;115900.28;6242165;22;20016;-89
2023/07/10 11:07:23;;;;;;;15.45;6.32;;;;;;;-142.57;31.61;115900.28;6301299;22;20019;-86
2023/07/10 11:10:00;;;;;;;10.77;5.82;;;;;;;-142.57;31.68;115900.28;6297026;22;20012;-87
2023/07/10 11:12:33;;;;;;;15.02;5.97;;;;;;;-142.57;32.06;115900.28;6294930;22;20012;-90